sensor_id;sensor_type;location;lat;lon;timestamp;temperature;humidity
31271;DHT22;17904;47.420;9.310;2022-07-05T00:01:31;15.60;99.90
31271;DHT22;17904;47.420;9.310;2022-07-05T00:03:58;15.60;99.90
31271;DHT22;17904;47.420;9.310;2022-07-05T00:06:24;15.60;99.90
31271;DHT22;17904;47.420;9.310;2022-07-05T00:08:51;15.60;99.90
31271;DHT22;17904;47.420;9.310;2022-07-05T00:11:18;15.60;99.90
31271;DHT22;17904;47.420;9.310;2022-07-05T00:13:45;15.60;99.90
31271;DHT22;17904;47.420;9.310;2022-07-05T00:16:11;15.70;99.90
31271;DHT22;17904;47.420;9.310;2022-07-05T00:18:38;15.70;99.90
31271;DHT22;17904;47.420;9.310;2022-07-05T00:21:05;15.70;99.90
31271;DHT22;17904;47.420;9.310;2022-07-05T00:23:32;15.60;99.90
31271;DHT22;17904;47.420;9.310;2022-07-05T00:25:59;15.60;99.90
31271;DHT22;17904;47.420;9.310;2022-07-05T00:28:25;15.60;99.90
31271;DHT22;17904;47.420;9.310;2022-07-05T00:30:52;15.60;99.90
31271;DHT22;17904;47.420;9.310;2022-07-05T00:33:19;15.60;99.90
31271;DHT22;17904;47.420;9.310;2022-07-05T00:35:46;15.60;99.90
31271;DHT22;17904;47.420;9.310;2022-07-05T00:38:13;15.50;99.90
31271;DHT22;17904;47.420;9.310;2022-07-05T00:40:40;15.60;99.90
31271;DHT22;17904;47.420;9.310;2022-07-05T00:43:08;15.50;99.90
31271;DHT22;17904;47.420;9.310;2022-07-05T00:45:35;15.60;99.90
31271;DHT22;17904;47.420;9.310;2022-07-05T00:48:01;15.60;99.90
31271;DHT22;17904;47.420;9.310;2022-07-05T00:50:28;15.60;99.90
31271;DHT22;17904;47.420;9.310;2022-07-05T00:52:56;15.60;99.90
31271;DHT22;17904;47.420;9.310;2022-07-05T00:55:23;15.60;99.90
31271;DHT22;17904;47.420;9.310;2022-07-05T00:57:50;15.60;99.90
31271;DHT22;17904;47.420;9.310;2022-07-05T01:00:17;15.60;99.90
31271;DHT22;17904;47.420;9.310;2022-07-05T01:02:45;15.60;99.90
31271;DHT22;17904;47.420;9.310;2022-07-05T01:05:12;15.70;99.90
31271;DHT22;17904;47.420;9.310;2022-07-05T01:07:40;15.70;99.90
31271;DHT22;17904;47.420;9.310;2022-07-05T01:10:07;15.70;99.90
31271;DHT22;17904;47.420;9.310;2022-07-05T01:12:34;15.70;99.90
31271;DHT22;17904;47.420;9.310;2022-07-05T01:15:01;15.70;99.90
31271;DHT22;17904;47.420;9.310;2022-07-05T01:17:29;15.70;99.90
31271;DHT22;17904;47.420;9.310;2022-07-05T01:19:56;15.70;99.90
31271;DHT22;17904;47.420;9.310;2022-07-05T01:22:25;15.70;99.90
31271;DHT22;17904;47.420;9.310;2022-07-05T01:24:53;15.70;99.90
31271;DHT22;17904;47.420;9.310;2022-07-05T01:27:20;15.70;99.90
31271;DHT22;17904;47.420;9.310;2022-07-05T01:29:47;15.70;99.90
31271;DHT22;17904;47.420;9.310;2022-07-05T01:32:14;15.70;99.90
31271;DHT22;17904;47.420;9.310;2022-07-05T01:34:42;15.80;99.90
31271;DHT22;17904;47.420;9.310;2022-07-05T01:37:10;15.80;99.90
31271;DHT22;17904;47.420;9.310;2022-07-05T01:39:37;15.80;99.90
31271;DHT22;17904;47.420;9.310;2022-07-05T01:42:06;15.80;99.90
31271;DHT22;17904;47.420;9.310;2022-07-05T01:44:33;15.70;99.90
31271;DHT22;17904;47.420;9.310;2022-07-05T01:47:04;15.80;99.90
31271;DHT22;17904;47.420;9.310;2022-07-05T01:49:35;15.80;99.90
31271;DHT22;17904;47.420;9.310;2022-07-05T01:52:09;15.80;99.90
31271;DHT22;17904;47.420;9.310;2022-07-05T01:54:37;15.80;99.90
31271;DHT22;17904;47.420;9.310;2022-07-05T01:57:06;15.80;99.90
31271;DHT22;17904;47.420;9.310;2022-07-05T01:59:33;15.70;99.90
31271;DHT22;17904;47.420;9.310;2022-07-05T02:02:02;15.70;99.90
31271;DHT22;17904;47.420;9.310;2022-07-05T02:04:29;15.70;99.90
31271;DHT22;17904;47.420;9.310;2022-07-05T02:06:57;15.70;99.90
31271;DHT22;17904;47.420;9.310;2022-07-05T02:09:24;15.60;99.90
31271;DHT22;17904;47.420;9.310;2022-07-05T02:11:51;15.70;99.90
31271;DHT22;17904;47.420;9.310;2022-07-05T02:14:18;15.70;99.90
31271;DHT22;17904;47.420;9.310;2022-07-05T02:16:46;15.70;99.90
31271;DHT22;17904;47.420;9.310;2022-07-05T02:19:14;15.70;99.90
31271;DHT22;17904;47.420;9.310;2022-07-05T02:21:42;15.70;99.90
31271;DHT22;17904;47.420;9.310;2022-07-05T02:24:14;15.70;99.90
31271;DHT22;17904;47.420;9.310;2022-07-05T02:26:49;15.70;99.90
31271;DHT22;17904;47.420;9.310;2022-07-05T02:29:17;15.70;99.90
31271;DHT22;17904;47.420;9.310;2022-07-05T02:31:45;15.70;99.90
31271;DHT22;17904;47.420;9.310;2022-07-05T02:34:12;15.70;99.90
31271;DHT22;17904;47.420;9.310;2022-07-05T02:36:39;15.70;99.90
31271;DHT22;17904;47.420;9.310;2022-07-05T02:39:10;15.70;99.90
31271;DHT22;17904;47.420;9.310;2022-07-05T02:41:37;15.70;99.90
31271;DHT22;17904;47.420;9.310;2022-07-05T02:44:04;15.70;99.90
31271;DHT22;17904;47.420;9.310;2022-07-05T02:46:31;15.70;99.90
31271;DHT22;17904;47.420;9.310;2022-07-05T02:49:01;15.70;99.90
31271;DHT22;17904;47.420;9.310;2022-07-05T02:51:31;15.70;99.90
31271;DHT22;17904;47.420;9.310;2022-07-05T02:53:59;15.70;99.90
31271;DHT22;17904;47.420;9.310;2022-07-05T02:56:28;15.70;99.90
31271;DHT22;17904;47.420;9.310;2022-07-05T02:58:56;15.70;99.90
31271;DHT22;17904;47.420;9.310;2022-07-05T03:01:25;15.70;99.90
31271;DHT22;17904;47.420;9.310;2022-07-05T03:03:58;15.70;99.90
31271;DHT22;17904;47.420;9.310;2022-07-05T03:06:27;15.70;99.90
31271;DHT22;17904;47.420;9.310;2022-07-05T03:08:54;15.70;99.90
31271;DHT22;17904;47.420;9.310;2022-07-05T03:11:21;15.70;99.90
31271;DHT22;17904;47.420;9.310;2022-07-05T03:13:49;15.70;99.90
31271;DHT22;17904;47.420;9.310;2022-07-05T03:16:16;15.70;99.90
31271;DHT22;17904;47.420;9.310;2022-07-05T03:18:44;15.70;99.90
31271;DHT22;17904;47.420;9.310;2022-07-05T03:21:10;15.70;99.90
31271;DHT22;17904;47.420;9.310;2022-07-05T03:23:38;15.70;99.90
31271;DHT22;17904;47.420;9.310;2022-07-05T03:26:05;15.80;99.90
31271;DHT22;17904;47.420;9.310;2022-07-05T03:28:32;15.80;99.90
31271;DHT22;17904;47.420;9.310;2022-07-05T03:31:00;15.80;99.90
31271;DHT22;17904;47.420;9.310;2022-07-05T03:33:31;15.80;99.90
31271;DHT22;17904;47.420;9.310;2022-07-05T03:36:00;15.80;99.90
31271;DHT22;17904;47.420;9.310;2022-07-05T03:38:28;15.80;99.90
31271;DHT22;17904;47.420;9.310;2022-07-05T03:40:55;15.90;99.90
31271;DHT22;17904;47.420;9.310;2022-07-05T03:43:24;15.90;99.90
31271;DHT22;17904;47.420;9.310;2022-07-05T03:45:52;15.90;99.90
31271;DHT22;17904;47.420;9.310;2022-07-05T03:48:22;15.90;99.90
31271;DHT22;17904;47.420;9.310;2022-07-05T03:51:08;15.90;99.90
31271;DHT22;17904;47.420;9.310;2022-07-05T03:53:36;15.90;99.90
31271;DHT22;17904;47.420;9.310;2022-07-05T03:56:04;15.90;99.90
31271;DHT22;17904;47.420;9.310;2022-07-05T03:58:31;15.90;99.90
31271;DHT22;17904;47.420;9.310;2022-07-05T04:00:59;15.90;99.90
31271;DHT22;17904;47.420;9.310;2022-07-05T04:03:27;15.90;99.90
31271;DHT22;17904;47.420;9.310;2022-07-05T04:05:55;15.90;99.90
31271;DHT22;17904;47.420;9.310;2022-07-05T04:08:22;15.90;99.90
31271;DHT22;17904;47.420;9.310;2022-07-05T04:10:49;15.90;99.90
31271;DHT22;17904;47.420;9.310;2022-07-05T04:13:19;15.90;99.90
31271;DHT22;17904;47.420;9.310;2022-07-05T04:15:47;15.90;99.90
31271;DHT22;17904;47.420;9.310;2022-07-05T04:18:15;15.90;99.90
31271;DHT22;17904;47.420;9.310;2022-07-05T04:20:42;15.90;99.90
31271;DHT22;17904;47.420;9.310;2022-07-05T04:23:11;15.90;99.90
31271;DHT22;17904;47.420;9.310;2022-07-05T04:25:38;15.90;99.90
31271;DHT22;17904;47.420;9.310;2022-07-05T04:28:13;15.90;99.90
31271;DHT22;17904;47.420;9.310;2022-07-05T04:30:41;15.90;99.90
31271;DHT22;17904;47.420;9.310;2022-07-05T04:33:10;15.90;99.90
31271;DHT22;17904;47.420;9.310;2022-07-05T04:35:38;15.90;99.90
31271;DHT22;17904;47.420;9.310;2022-07-05T04:38:05;15.90;99.90
31271;DHT22;17904;47.420;9.310;2022-07-05T04:40:35;15.80;99.90
31271;DHT22;17904;47.420;9.310;2022-07-05T04:43:02;15.80;99.90
31271;DHT22;17904;47.420;9.310;2022-07-05T04:45:29;15.80;99.90
31271;DHT22;17904;47.420;9.310;2022-07-05T04:47:57;15.80;99.90
31271;DHT22;17904;47.420;9.310;2022-07-05T04:50:25;15.80;99.90
31271;DHT22;17904;47.420;9.310;2022-07-05T04:52:52;15.80;99.90
31271;DHT22;17904;47.420;9.310;2022-07-05T04:55:19;15.80;99.90
31271;DHT22;17904;47.420;9.310;2022-07-05T04:57:46;15.80;99.90
31271;DHT22;17904;47.420;9.310;2022-07-05T05:00:13;15.80;99.90
31271;DHT22;17904;47.420;9.310;2022-07-05T05:02:40;15.80;99.90
31271;DHT22;17904;47.420;9.310;2022-07-05T05:05:08;15.80;99.90
31271;DHT22;17904;47.420;9.310;2022-07-05T05:07:35;15.80;99.90
31271;DHT22;17904;47.420;9.310;2022-07-05T05:10:05;15.80;99.90
31271;DHT22;17904;47.420;9.310;2022-07-05T05:12:32;15.80;99.90
31271;DHT22;17904;47.420;9.310;2022-07-05T05:14:59;15.80;99.90
31271;DHT22;17904;47.420;9.310;2022-07-05T05:17:37;15.80;99.90
31271;DHT22;17904;47.420;9.310;2022-07-05T05:20:12;15.80;99.90
31271;DHT22;17904;47.420;9.310;2022-07-05T05:22:39;15.80;99.90
31271;DHT22;17904;47.420;9.310;2022-07-05T05:25:07;15.80;99.90
31271;DHT22;17904;47.420;9.310;2022-07-05T05:27:34;15.80;99.90
31271;DHT22;17904;47.420;9.310;2022-07-05T05:30:02;15.70;99.90
31271;DHT22;17904;47.420;9.310;2022-07-05T05:32:29;15.80;99.90
31271;DHT22;17904;47.420;9.310;2022-07-05T05:34:55;15.80;99.90
31271;DHT22;17904;47.420;9.310;2022-07-05T05:37:22;15.80;99.90
31271;DHT22;17904;47.420;9.310;2022-07-05T05:39:49;15.80;99.90
31271;DHT22;17904;47.420;9.310;2022-07-05T05:42:16;15.80;99.90
31271;DHT22;17904;47.420;9.310;2022-07-05T05:44:42;15.90;99.90
31271;DHT22;17904;47.420;9.310;2022-07-05T05:47:09;15.90;99.90
31271;DHT22;17904;47.420;9.310;2022-07-05T05:49:42;16.00;99.90
31271;DHT22;17904;47.420;9.310;2022-07-05T05:52:10;16.00;99.90
31271;DHT22;17904;47.420;9.310;2022-07-05T05:54:36;16.10;99.90
31271;DHT22;17904;47.420;9.310;2022-07-05T05:57:03;16.10;99.90
31271;DHT22;17904;47.420;9.310;2022-07-05T05:59:30;16.20;99.90
31271;DHT22;17904;47.420;9.310;2022-07-05T06:01:57;16.20;99.90
31271;DHT22;17904;47.420;9.310;2022-07-05T06:04:24;16.30;99.90
31271;DHT22;17904;47.420;9.310;2022-07-05T06:06:51;16.30;99.90
31271;DHT22;17904;47.420;9.310;2022-07-05T06:09:18;16.40;99.90
31271;DHT22;17904;47.420;9.310;2022-07-05T06:11:44;16.40;99.90
31271;DHT22;17904;47.420;9.310;2022-07-05T06:14:11;16.40;99.90
31271;DHT22;17904;47.420;9.310;2022-07-05T06:16:38;16.50;99.90
31271;DHT22;17904;47.420;9.310;2022-07-05T06:19:05;16.50;99.90
31271;DHT22;17904;47.420;9.310;2022-07-05T06:21:32;16.60;99.90
31271;DHT22;17904;47.420;9.310;2022-07-05T06:23:58;16.70;99.90
31271;DHT22;17904;47.420;9.310;2022-07-05T06:26:25;16.90;99.90
31271;DHT22;17904;47.420;9.310;2022-07-05T06:28:52;17.00;99.90
31271;DHT22;17904;47.420;9.310;2022-07-05T06:31:18;17.10;99.90
31271;DHT22;17904;47.420;9.310;2022-07-05T06:33:45;17.20;99.90
31271;DHT22;17904;47.420;9.310;2022-07-05T06:36:12;17.20;99.90
31271;DHT22;17904;47.420;9.310;2022-07-05T06:38:39;17.40;99.90
31271;DHT22;17904;47.420;9.310;2022-07-05T06:41:06;17.40;99.90
31271;DHT22;17904;47.420;9.310;2022-07-05T06:43:32;17.50;99.90
31271;DHT22;17904;47.420;9.310;2022-07-05T06:46:07;17.50;99.90
31271;DHT22;17904;47.420;9.310;2022-07-05T06:48:33;17.60;99.90
31271;DHT22;17904;47.420;9.310;2022-07-05T06:51:00;17.70;99.90
31271;DHT22;17904;47.420;9.310;2022-07-05T06:53:27;17.70;99.90
31271;DHT22;17904;47.420;9.310;2022-07-05T06:55:54;17.80;99.90
31271;DHT22;17904;47.420;9.310;2022-07-05T06:58:23;17.80;99.90
31271;DHT22;17904;47.420;9.310;2022-07-05T07:00:50;17.90;99.90
31271;DHT22;17904;47.420;9.310;2022-07-05T07:03:37;18.00;99.90
31271;DHT22;17904;47.420;9.310;2022-07-05T07:06:24;18.10;99.90
31271;DHT22;17904;47.420;9.310;2022-07-05T07:08:51;18.20;99.90
31271;DHT22;17904;47.420;9.310;2022-07-05T07:11:35;18.30;99.90
31271;DHT22;17904;47.420;9.310;2022-07-05T07:14:02;18.40;99.90
31271;DHT22;17904;47.420;9.310;2022-07-05T07:16:29;18.40;99.90
31271;DHT22;17904;47.420;9.310;2022-07-05T07:18:56;18.50;99.90
31271;DHT22;17904;47.420;9.310;2022-07-05T07:21:37;18.60;99.90
31271;DHT22;17904;47.420;9.310;2022-07-05T07:24:06;18.60;99.90
31271;DHT22;17904;47.420;9.310;2022-07-05T07:26:33;18.60;99.90
31271;DHT22;17904;47.420;9.310;2022-07-05T07:29:19;18.60;99.90
31271;DHT22;17904;47.420;9.310;2022-07-05T07:31:46;18.70;99.90
31271;DHT22;17904;47.420;9.310;2022-07-05T07:34:13;18.70;99.90
31271;DHT22;17904;47.420;9.310;2022-07-05T07:36:41;18.80;99.90
31271;DHT22;17904;47.420;9.310;2022-07-05T07:39:08;19.00;99.90
31271;DHT22;17904;47.420;9.310;2022-07-05T07:41:35;19.20;99.90
31271;DHT22;17904;47.420;9.310;2022-07-05T07:44:02;19.30;99.90
31271;DHT22;17904;47.420;9.310;2022-07-05T07:46:29;19.50;99.90
31271;DHT22;17904;47.420;9.310;2022-07-05T07:48:56;19.60;99.90
31271;DHT22;17904;47.420;9.310;2022-07-05T07:51:23;19.70;99.90
31271;DHT22;17904;47.420;9.310;2022-07-05T07:53:51;19.70;99.90
31271;DHT22;17904;47.420;9.310;2022-07-05T07:56:18;19.70;99.90
31271;DHT22;17904;47.420;9.310;2022-07-05T07:58:46;19.70;99.90
31271;DHT22;17904;47.420;9.310;2022-07-05T08:01:13;19.80;99.90
31271;DHT22;17904;47.420;9.310;2022-07-05T08:03:40;19.80;99.90
31271;DHT22;17904;47.420;9.310;2022-07-05T08:06:08;19.80;99.90
31271;DHT22;17904;47.420;9.310;2022-07-05T08:08:38;19.80;99.90
31271;DHT22;17904;47.420;9.310;2022-07-05T08:11:05;19.80;99.90
31271;DHT22;17904;47.420;9.310;2022-07-05T08:13:32;19.80;99.90
31271;DHT22;17904;47.420;9.310;2022-07-05T08:15:59;19.80;99.90
31271;DHT22;17904;47.420;9.310;2022-07-05T08:18:26;19.80;99.90
31271;DHT22;17904;47.420;9.310;2022-07-05T08:21:12;19.80;99.90
31271;DHT22;17904;47.420;9.310;2022-07-05T08:23:59;19.80;99.90
31271;DHT22;17904;47.420;9.310;2022-07-05T08:26:27;19.90;99.90
31271;DHT22;17904;47.420;9.310;2022-07-05T08:28:54;20.00;99.90
31271;DHT22;17904;47.420;9.310;2022-07-05T08:31:39;20.10;99.90
31271;DHT22;17904;47.420;9.310;2022-07-05T08:34:06;20.10;99.90
31271;DHT22;17904;47.420;9.310;2022-07-05T08:36:33;20.20;99.90
31271;DHT22;17904;47.420;9.310;2022-07-05T08:39:00;20.30;99.90
31271;DHT22;17904;47.420;9.310;2022-07-05T08:41:28;20.40;99.90
31271;DHT22;17904;47.420;9.310;2022-07-05T08:43:57;20.50;99.90
31271;DHT22;17904;47.420;9.310;2022-07-05T08:46:25;20.70;99.90
31271;DHT22;17904;47.420;9.310;2022-07-05T08:48:54;20.80;99.90
31271;DHT22;17904;47.420;9.310;2022-07-05T08:51:22;20.90;99.90
31271;DHT22;17904;47.420;9.310;2022-07-05T08:53:52;21.00;99.90
31271;DHT22;17904;47.420;9.310;2022-07-05T08:56:19;21.10;99.90
31271;DHT22;17904;47.420;9.310;2022-07-05T08:59:05;21.10;99.90
31271;DHT22;17904;47.420;9.310;2022-07-05T09:01:33;21.20;99.90
31271;DHT22;17904;47.420;9.310;2022-07-05T09:04:04;21.20;99.90
31271;DHT22;17904;47.420;9.310;2022-07-05T09:06:37;21.20;99.90
31271;DHT22;17904;47.420;9.310;2022-07-05T09:09:05;21.30;99.90
31271;DHT22;17904;47.420;9.310;2022-07-05T09:14:05;21.30;99.90
31271;DHT22;17904;47.420;9.310;2022-07-05T09:16:52;21.30;99.90
31271;DHT22;17904;47.420;9.310;2022-07-05T09:19:19;21.30;99.90
31271;DHT22;17904;47.420;9.310;2022-07-05T09:21:46;21.40;99.90
31271;DHT22;17904;47.420;9.310;2022-07-05T09:24:14;21.50;99.90
31271;DHT22;17904;47.420;9.310;2022-07-05T09:26:48;21.70;99.90
31271;DHT22;17904;47.420;9.310;2022-07-05T09:29:18;21.80;99.90
31271;DHT22;17904;47.420;9.310;2022-07-05T09:32:05;21.90;99.90
31271;DHT22;17904;47.420;9.310;2022-07-05T09:34:32;22.20;99.90
31271;DHT22;17904;47.420;9.310;2022-07-05T09:37:02;22.50;99.90
31271;DHT22;17904;47.420;9.310;2022-07-05T09:44:53;23.10;99.90
31271;DHT22;17904;47.420;9.310;2022-07-05T09:47:26;23.40;99.90
31271;DHT22;17904;47.420;9.310;2022-07-05T09:49:55;23.60;99.90
31271;DHT22;17904;47.420;9.310;2022-07-05T09:52:45;23.70;99.90
31271;DHT22;17904;47.420;9.310;2022-07-05T09:55:14;23.60;99.90
31271;DHT22;17904;47.420;9.310;2022-07-05T09:57:47;23.60;99.90
31271;DHT22;17904;47.420;9.310;2022-07-05T10:00:18;23.70;99.90
31271;DHT22;17904;47.420;9.310;2022-07-05T10:02:53;23.90;99.90
31271;DHT22;17904;47.420;9.310;2022-07-05T10:05:23;24.00;99.90
31271;DHT22;17904;47.420;9.310;2022-07-05T10:07:55;24.20;99.90
31271;DHT22;17904;47.420;9.310;2022-07-05T10:10:24;24.30;99.90
31271;DHT22;17904;47.420;9.310;2022-07-05T10:12:52;24.50;99.90
31271;DHT22;17904;47.420;9.310;2022-07-05T10:15:25;24.60;99.90
31271;DHT22;17904;47.420;9.310;2022-07-05T10:18:13;24.70;99.00
31271;DHT22;17904;47.420;9.310;2022-07-05T10:20:45;24.70;99.90
31271;DHT22;17904;47.420;9.310;2022-07-05T10:23:17;24.60;96.40
31271;DHT22;17904;47.420;9.310;2022-07-05T10:25:49;24.60;97.10
31271;DHT22;17904;47.420;9.310;2022-07-05T10:28:18;24.70;97.40
31271;DHT22;17904;47.420;9.310;2022-07-05T10:30:47;24.60;99.90
31271;DHT22;17904;47.420;9.310;2022-07-05T10:33:19;24.40;98.80
31271;DHT22;17904;47.420;9.310;2022-07-05T10:35:53;24.20;99.90
31271;DHT22;17904;47.420;9.310;2022-07-05T10:38:20;24.10;99.90
31271;DHT22;17904;47.420;9.310;2022-07-05T10:40:51;23.90;99.90
31271;DHT22;17904;47.420;9.310;2022-07-05T10:43:21;23.80;99.90
31271;DHT22;17904;47.420;9.310;2022-07-05T10:45:50;23.70;99.90
31271;DHT22;17904;47.420;9.310;2022-07-05T10:48:21;23.60;99.90
31271;DHT22;17904;47.420;9.310;2022-07-05T10:53:27;23.70;99.90
31271;DHT22;17904;47.420;9.310;2022-07-05T10:56:19;23.80;99.90
31271;DHT22;17904;47.420;9.310;2022-07-05T10:58:46;24.00;99.90
31271;DHT22;17904;47.420;9.310;2022-07-05T11:11:42;25.00;99.90
31271;DHT22;17904;47.420;9.310;2022-07-05T11:14:31;25.10;99.90
31271;DHT22;17904;47.420;9.310;2022-07-05T11:20:05;25.00;99.90
31271;DHT22;17904;47.420;9.310;2022-07-05T11:22:37;24.80;99.90
31271;DHT22;17904;47.420;9.310;2022-07-05T11:25:06;24.60;99.90
31271;DHT22;17904;47.420;9.310;2022-07-05T11:27:33;24.40;99.90
31271;DHT22;17904;47.420;9.310;2022-07-05T11:30:00;24.30;99.90
31271;DHT22;17904;47.420;9.310;2022-07-05T11:35:13;24.10;99.90
31271;DHT22;17904;47.420;9.310;2022-07-05T11:38:09;24.00;99.90
31271;DHT22;17904;47.420;9.310;2022-07-05T11:40:52;24.00;99.90
31271;DHT22;17904;47.420;9.310;2022-07-05T11:43:29;24.00;99.90
31271;DHT22;17904;47.420;9.310;2022-07-05T11:45:58;24.40;99.90
31271;DHT22;17904;47.420;9.310;2022-07-05T11:48:27;24.70;99.90
31271;DHT22;17904;47.420;9.310;2022-07-05T11:50:54;24.70;97.90
31271;DHT22;17904;47.420;9.310;2022-07-05T11:53:26;24.60;99.60
31271;DHT22;17904;47.420;9.310;2022-07-05T11:56:13;24.60;99.70
31271;DHT22;17904;47.420;9.310;2022-07-05T11:58:40;24.60;99.90
31271;DHT22;17904;47.420;9.310;2022-07-05T12:01:07;24.50;99.90
31271;DHT22;17904;47.420;9.310;2022-07-05T12:03:34;24.40;99.90
31271;DHT22;17904;47.420;9.310;2022-07-05T12:06:14;24.20;99.90
31271;DHT22;17904;47.420;9.310;2022-07-05T12:08:42;24.10;99.90
31271;DHT22;17904;47.420;9.310;2022-07-05T12:11:12;24.10;99.90
31271;DHT22;17904;47.420;9.310;2022-07-05T12:13:57;24.30;99.90
31271;DHT22;17904;47.420;9.310;2022-07-05T12:16:24;24.40;99.90
31271;DHT22;17904;47.420;9.310;2022-07-05T12:18:56;24.30;99.90
31271;DHT22;17904;47.420;9.310;2022-07-05T12:21:23;24.30;99.90
31271;DHT22;17904;47.420;9.310;2022-07-05T12:23:51;24.30;99.90
31271;DHT22;17904;47.420;9.310;2022-07-05T12:26:19;24.20;99.90
31271;DHT22;17904;47.420;9.310;2022-07-05T12:28:47;24.10;99.90
31271;DHT22;17904;47.420;9.310;2022-07-05T12:31:22;24.10;99.90
31271;DHT22;17904;47.420;9.310;2022-07-05T12:33:51;24.30;99.90
31271;DHT22;17904;47.420;9.310;2022-07-05T12:36:20;24.40;99.90
31271;DHT22;17904;47.420;9.310;2022-07-05T12:38:50;24.50;99.90
31271;DHT22;17904;47.420;9.310;2022-07-05T12:41:22;24.60;99.90
31271;DHT22;17904;47.420;9.310;2022-07-05T12:43:54;24.80;97.90
31271;DHT22;17904;47.420;9.310;2022-07-05T12:46:41;25.20;99.90
31271;DHT22;17904;47.420;9.310;2022-07-05T12:49:10;25.60;92.10
31271;DHT22;17904;47.420;9.310;2022-07-05T12:51:40;25.80;92.50
31271;DHT22;17904;47.420;9.310;2022-07-05T12:54:09;26.10;82.00
31271;DHT22;17904;47.420;9.310;2022-07-05T12:57:03;26.20;74.80
31271;DHT22;17904;47.420;9.310;2022-07-05T13:00:08;26.40;72.60
31271;DHT22;17904;47.420;9.310;2022-07-05T13:02:38;26.60;77.60
31271;DHT22;17904;47.420;9.310;2022-07-05T13:05:18;26.80;79.60
31271;DHT22;17904;47.420;9.310;2022-07-05T13:07:49;27.00;77.70
31271;DHT22;17904;47.420;9.310;2022-07-05T13:10:24;27.10;70.50
31271;DHT22;17904;47.420;9.310;2022-07-05T13:12:52;27.30;65.60
31271;DHT22;17904;47.420;9.310;2022-07-05T13:15:19;27.50;59.90
31271;DHT22;17904;47.420;9.310;2022-07-05T13:17:46;27.60;58.20
31271;DHT22;17904;47.420;9.310;2022-07-05T13:20:15;27.80;59.90
31271;DHT22;17904;47.420;9.310;2022-07-05T13:22:44;28.00;54.10
31271;DHT22;17904;47.420;9.310;2022-07-05T13:25:11;28.00;55.90
31271;DHT22;17904;47.420;9.310;2022-07-05T13:27:39;28.10;56.40
31271;DHT22;17904;47.420;9.310;2022-07-05T13:30:07;28.20;58.40
31271;DHT22;17904;47.420;9.310;2022-07-05T13:32:34;28.40;58.00
31271;DHT22;17904;47.420;9.310;2022-07-05T13:35:01;28.40;58.00
31271;DHT22;17904;47.420;9.310;2022-07-05T13:37:28;28.40;58.00
31271;DHT22;17904;47.420;9.310;2022-07-05T13:39:55;28.20;57.70
31271;DHT22;17904;47.420;9.310;2022-07-05T13:42:22;27.90;60.30
31271;DHT22;17904;47.420;9.310;2022-07-05T13:44:48;27.50;62.20
31271;DHT22;17904;47.420;9.310;2022-07-05T13:47:15;27.20;63.40
31271;DHT22;17904;47.420;9.310;2022-07-05T13:49:42;27.10;59.10
31271;DHT22;17904;47.420;9.310;2022-07-05T13:52:10;27.20;56.70
31271;DHT22;17904;47.420;9.310;2022-07-05T13:54:37;27.10;57.60
31271;DHT22;17904;47.420;9.310;2022-07-05T13:57:04;27.10;57.70
31271;DHT22;17904;47.420;9.310;2022-07-05T13:59:31;27.10;63.00
31271;DHT22;17904;47.420;9.310;2022-07-05T14:01:58;27.30;64.40
31271;DHT22;17904;47.420;9.310;2022-07-05T14:04:25;27.40;67.00
31271;DHT22;17904;47.420;9.310;2022-07-05T14:06:56;27.60;65.80
31271;DHT22;17904;47.420;9.310;2022-07-05T14:09:23;27.70;63.70
31271;DHT22;17904;47.420;9.310;2022-07-05T14:11:55;28.00;56.50
31271;DHT22;17904;47.420;9.310;2022-07-05T14:14:22;28.10;52.30
31271;DHT22;17904;47.420;9.310;2022-07-05T14:16:49;28.20;52.30
31271;DHT22;17904;47.420;9.310;2022-07-05T14:19:16;28.30;50.50
31271;DHT22;17904;47.420;9.310;2022-07-05T14:21:42;28.20;57.10
31271;DHT22;17904;47.420;9.310;2022-07-05T14:24:13;28.10;54.20
31271;DHT22;17904;47.420;9.310;2022-07-05T14:26:40;28.10;50.40
31271;DHT22;17904;47.420;9.310;2022-07-05T14:29:08;28.10;50.80
31271;DHT22;17904;47.420;9.310;2022-07-05T14:31:35;28.20;51.60
31271;DHT22;17904;47.420;9.310;2022-07-05T14:34:02;28.30;49.70
31271;DHT22;17904;47.420;9.310;2022-07-05T14:36:29;28.30;51.40
31271;DHT22;17904;47.420;9.310;2022-07-05T14:38:56;28.30;50.50
31271;DHT22;17904;47.420;9.310;2022-07-05T14:41:25;28.20;50.30
31271;DHT22;17904;47.420;9.310;2022-07-05T14:43:52;28.00;49.60
31271;DHT22;17904;47.420;9.310;2022-07-05T14:46:21;28.00;51.30
31271;DHT22;17904;47.420;9.310;2022-07-05T14:48:48;28.00;51.40
31271;DHT22;17904;47.420;9.310;2022-07-05T14:51:15;28.00;53.20
31271;DHT22;17904;47.420;9.310;2022-07-05T14:53:42;28.00;55.50
31271;DHT22;17904;47.420;9.310;2022-07-05T14:56:11;28.00;50.00
31271;DHT22;17904;47.420;9.310;2022-07-05T14:58:37;28.00;50.40
31271;DHT22;17904;47.420;9.310;2022-07-05T15:01:04;28.10;49.00
31271;DHT22;17904;47.420;9.310;2022-07-05T15:03:31;28.10;49.80
31271;DHT22;17904;47.420;9.310;2022-07-05T15:05:58;28.20;48.90
31271;DHT22;17904;47.420;9.310;2022-07-05T15:08:26;28.20;47.20
31271;DHT22;17904;47.420;9.310;2022-07-05T15:10:54;28.30;47.80
31271;DHT22;17904;47.420;9.310;2022-07-05T15:13:21;28.30;48.80
31271;DHT22;17904;47.420;9.310;2022-07-05T15:15:48;28.40;47.70
31271;DHT22;17904;47.420;9.310;2022-07-05T15:18:15;28.50;50.30
31271;DHT22;17904;47.420;9.310;2022-07-05T15:20:42;28.40;48.90
31271;DHT22;17904;47.420;9.310;2022-07-05T15:23:09;28.30;48.50
31271;DHT22;17904;47.420;9.310;2022-07-05T15:25:35;28.00;48.80
31271;DHT22;17904;47.420;9.310;2022-07-05T15:28:03;27.90;51.80
31271;DHT22;17904;47.420;9.310;2022-07-05T15:30:32;27.60;50.70
31271;DHT22;17904;47.420;9.310;2022-07-05T15:32:59;27.60;51.80
31271;DHT22;17904;47.420;9.310;2022-07-05T15:35:28;27.60;54.50
31271;DHT22;17904;47.420;9.310;2022-07-05T15:37:55;27.60;53.40
31271;DHT22;17904;47.420;9.310;2022-07-05T15:40:22;27.50;53.70
31271;DHT22;17904;47.420;9.310;2022-07-05T15:42:48;27.50;54.80
31271;DHT22;17904;47.420;9.310;2022-07-05T15:45:15;27.60;54.80
31271;DHT22;17904;47.420;9.310;2022-07-05T15:47:42;27.50;53.00
31271;DHT22;17904;47.420;9.310;2022-07-05T15:50:09;27.50;50.70
31271;DHT22;17904;47.420;9.310;2022-07-05T15:52:37;27.40;50.90
31271;DHT22;17904;47.420;9.310;2022-07-05T15:55:05;27.40;52.40
31271;DHT22;17904;47.420;9.310;2022-07-05T15:57:33;27.50;53.20
31271;DHT22;17904;47.420;9.310;2022-07-05T15:59:59;27.60;56.70
31271;DHT22;17904;47.420;9.310;2022-07-05T16:02:33;27.40;56.00
31271;DHT22;17904;47.420;9.310;2022-07-05T16:05:00;27.10;56.40
31271;DHT22;17904;47.420;9.310;2022-07-05T16:07:27;26.90;56.90
31271;DHT22;17904;47.420;9.310;2022-07-05T16:09:54;26.60;58.30